»·PEaware :: UAL2086 KSMF-KSFO

UAL2086 :: KSMF-KSFO

FLIGHT INFORMATION

Flight Status: Arrived
Operator:
United Airlines
More flights by this operator :: More flights under this callsign
Pilot: Jac C. (16067)
Aircraft: AIRBUS A320
(A320)
More flights by this aircraft type
Origin: KSMF Sacramento Intl
United States
Destination: KSFO San Francisco Intl
United States
More flights between these airports :: More routes between these airports
Route: +THORN ALWYS CEDES ARCHI
File this flight plan on PilotEdge
Remarks:
Altitude:
(Current/Filed)
13,000ft
Speed:
(Current/Filed)
371kts
Departed: 28-Jan-18 08:22 PM
Arrived: 28-Jan-18 08:55 PM
Distance/Time
Traveled:
75nm/0:33
Distance/Time
To Go:
Arrived

Flight Plot

Page will automatically refresh every two minutes.

Flight plan parsing failed; only flown route is shown


Map Options




Map Legend


Flown Route
Filed Route
Departure Airport
Arrival Airport
Navaid (VOR, NDB)
Fix

Horizontal Profiles

Position Reports

Time Latitude Longitude Heading Altitude Ground
Speed
28-Jan-18 19:51 38.696255 -121.594102 182 28ft 0kts
28-Jan-18 19:52 38.696255 -121.594102 182 28ft 0kts
28-Jan-18 19:53 38.696255 -121.594102 182 28ft 0kts
28-Jan-18 19:54 38.696255 -121.594102 182 28ft 0kts
28-Jan-18 19:55 38.696255 -121.594102 182 28ft 0kts
28-Jan-18 19:56 38.696255 -121.594102 182 28ft 0kts
28-Jan-18 19:57 38.696255 -121.594102 182 28ft 0kts
28-Jan-18 19:58 38.696255 -121.594102 182 28ft 0kts
28-Jan-18 19:59 38.696255 -121.594102 182 28ft 0kts
28-Jan-18 20:00 38.696255 -121.594102 182 28ft 0kts
28-Jan-18 20:01 38.696255 -121.594102 182 28ft 0kts
28-Jan-18 20:02 38.696255 -121.594102 182 28ft 0kts
28-Jan-18 20:03 38.696255 -121.594102 182 28ft 0kts
28-Jan-18 20:04 38.696255 -121.594102 182 28ft 0kts
28-Jan-18 20:05 38.696255 -121.594102 182 28ft 0kts
28-Jan-18 20:06 38.696255 -121.594102 182 28ft 0kts
28-Jan-18 20:07 38.696255 -121.594102 182 28ft 0kts
28-Jan-18 20:08 38.696255 -121.594102 182 28ft 0kts
28-Jan-18 20:09 38.696255 -121.594102 182 28ft 0kts
28-Jan-18 20:10 38.696255 -121.594102 182 28ft 0kts
28-Jan-18 20:11 38.696255 -121.594102 182 28ft 0kts
28-Jan-18 20:12 38.696255 -121.594102 182 28ft 0kts
28-Jan-18 20:13 38.696255 -121.594102 182 28ft 0kts
28-Jan-18 20:14 38.696255 -121.594102 182 28ft 0kts
28-Jan-18 20:15 38.696255 -121.594102 182 28ft 0kts
28-Jan-18 20:16 38.696628 -121.594085 182 28ft 2kts
28-Jan-18 20:17 38.696876 -121.593797 270 28ft 0kts
28-Jan-18 20:18 38.696876 -121.593797 270 28ft 0kts
28-Jan-18 20:19 38.696876 -121.593798 270 28ft 0kts
28-Jan-18 20:20 38.696876 -121.593798 270 28ft 0kts
28-Jan-18 20:21 38.696876 -121.593798 270 28ft 0kts
28-Jan-18 20:22 38.696876 -121.593820 270 28ft 0kts
28-Jan-18 20:23 38.697016 -121.596684 271 28ft 8kts
28-Jan-18 20:24 38.699897 -121.598574 1 28ft 17kts
28-Jan-18 20:25 38.704299 -121.598507 1 28ft 18kts
28-Jan-18 20:26 38.707264 -121.598887 282 28ft 4kts
28-Jan-18 20:27 38.706797 -121.601050 189 28ft 11kts
28-Jan-18 20:28 38.681132 -121.600782 163 707ft 161kts
28-Jan-18 20:29 38.647282 -121.556856 134 2383ft 214kts
28-Jan-18 20:30 38.599453 -121.492351 133 4998ft 263kts
28-Jan-18 20:31 38.553770 -121.417074 124 8257ft 278kts
28-Jan-18 20:32 38.502427 -121.337119 128 10301ft 333kts
28-Jan-18 20:33 38.438921 -121.239627 128 12829ft 360kts
28-Jan-18 20:34 38.374302 -121.140237 128 12977ft 363kts
28-Jan-18 20:35 38.296493 -121.064086 169 12974ft 370kts
28-Jan-18 20:36 38.195265 -121.045633 171 12972ft 370kts
28-Jan-18 20:37 38.094332 -121.046699 210 12977ft 375kts
28-Jan-18 20:38 38.037612 -121.129278 219 12969ft 376kts
28-Jan-18 20:39 37.943968 -121.227522 217 12999ft 375kts
28-Jan-18 20:40 37.878813 -121.293480 217 12991ft 341kts
28-Jan-18 20:41 37.794476 -121.378855 217 12964ft 340kts
28-Jan-18 20:42 37.735262 -121.438572 218 12135ft 318kts
28-Jan-18 20:43 37.657659 -121.516834 218 11004ft 294kts
28-Jan-18 20:44 37.604465 -121.570399 218 10998ft 295kts
28-Jan-18 20:45 37.547429 -121.642798 253 10982ft 297kts
28-Jan-18 20:46 37.523071 -121.741781 253 10971ft 297kts
28-Jan-18 20:47 37.499236 -121.840533 253 10996ft 296kts
28-Jan-18 20:48 37.499355 -121.940347 283 11000ft 293kts
28-Jan-18 20:49 37.515678 -122.040414 281 10974ft 293kts
28-Jan-18 20:50 37.489181 -122.117680 201 10966ft 252kts
28-Jan-18 20:51 37.425753 -122.151400 195 10179ft 247kts
28-Jan-18 20:52 37.381179 -122.101543 112 8803ft 256kts
28-Jan-18 20:53 37.386346 -122.027005 23 7254ft 237kts
28-Jan-18 20:54 37.446807 -121.996546 7 5964ft 219kts
28-Jan-18 20:55 37.485824 -122.050101 294 4831ft 236kts
28-Jan-18 20:56 37.514969 -122.122847 297 3847ft 222kts
28-Jan-18 20:57 37.543772 -122.191333 298 2984ft 226kts
28-Jan-18 20:58 37.572671 -122.259865 298 1752ft 215kts
28-Jan-18 20:59 37.597137 -122.318052 298 737ft 157kts
28-Jan-18 21:00 37.615668 -122.362394 300 21ft 135kts
28-Jan-18 21:01 37.622243 -122.380663 276 30ft 0kts
28-Jan-18 21:02 37.622263 -122.381015 272 30ft 14kts
28-Jan-18 21:03 37.619799 -122.382386 120 31ft 15kts
28-Jan-18 21:04 37.617771 -122.382805 179 31ft 0kts

Navigation Log

Ident Type
Flight plan parsing failed, navigation log unavailable